createdAt,value
2018-03-21T00:01:51.813Z,99.90
2018-03-21T00:04:20.910Z,99.90
2018-03-21T00:06:49.988Z,99.90
2018-03-21T00:09:18.310Z,99.90
2018-03-21T00:11:47.980Z,99.90
2018-03-21T00:14:16.324Z,99.90
2018-03-21T00:16:44.668Z,99.90
2018-03-21T00:19:13.808Z,99.90
2018-03-21T00:21:42.112Z,99.90
2018-03-21T00:24:10.413Z,99.90
2018-03-21T00:26:39.532Z,99.90
2018-03-21T00:29:08.775Z,99.90
2018-03-21T00:31:37.081Z,99.90
2018-03-21T00:34:05.408Z,99.90
2018-03-21T00:36:33.723Z,99.90
2018-03-21T00:39:02.090Z,99.90
2018-03-21T00:41:30.442Z,99.90
2018-03-21T00:43:58.759Z,99.90
2018-03-21T00:46:27.114Z,99.90
2018-03-21T00:48:56.460Z,99.90
2018-03-21T00:51:24.792Z,99.90
2018-03-21T00:53:53.144Z,99.90
2018-03-21T00:56:21.508Z,99.90
2018-03-21T00:58:49.821Z,99.90
2018-03-21T01:01:18.319Z,99.90
2018-03-21T01:03:46.632Z,99.90
2018-03-21T01:06:15.704Z,99.90
2018-03-21T01:08:44.037Z,99.90
2018-03-21T01:11:12.365Z,99.90
2018-03-21T01:13:40.723Z,99.90
2018-03-21T01:16:09.051Z,99.90
2018-03-21T01:18:38.134Z,99.90
2018-03-21T01:21:07.121Z,99.90
2018-03-21T01:23:35.426Z,99.90
2018-03-21T01:26:04.504Z,99.90
2018-03-21T01:28:32.848Z,99.90
2018-03-21T01:31:01.154Z,99.90
2018-03-21T01:33:29.484Z,99.90
2018-03-21T01:35:58.576Z,99.90
2018-03-21T01:38:27.650Z,99.90
2018-03-21T01:40:55.991Z,99.90
2018-03-21T01:43:24.307Z,99.90
2018-03-21T01:45:52.613Z,99.90
2018-03-21T01:48:21.697Z,99.90
2018-03-21T01:50:50.010Z,99.90
2018-03-21T01:53:18.317Z,99.90
2018-03-21T01:55:46.661Z,99.90
2018-03-21T01:58:15.800Z,99.90
2018-03-21T02:00:44.103Z,99.90
2018-03-21T02:03:12.413Z,99.90
2018-03-21T02:05:40.717Z,99.90
2018-03-21T02:08:09.845Z,99.90
2018-03-21T02:10:38.158Z,99.90
2018-03-21T02:13:06.478Z,99.90
2018-03-21T02:15:35.560Z,99.90
2018-03-21T02:18:04.676Z,99.90
2018-03-21T02:20:33.759Z,99.90
2018-03-21T02:23:02.066Z,99.90
2018-03-21T02:25:31.145Z,99.90
2018-03-21T02:28:00.225Z,99.90
2018-03-21T02:30:28.536Z,99.90
2018-03-21T02:32:57.626Z,99.90
2018-03-21T02:35:26.030Z,99.90
2018-03-21T02:37:55.117Z,99.90
2018-03-21T02:40:24.192Z,99.90
2018-03-21T02:42:52.534Z,99.90
2018-03-21T02:45:20.845Z,99.90
2018-03-21T02:47:49.154Z,99.90
2018-03-21T02:50:17.474Z,99.90
2018-03-21T02:52:45.774Z,99.90
2018-03-21T02:55:14.097Z,99.90
2018-03-21T02:57:42.406Z,99.90
2018-03-21T03:00:10.744Z,99.90
2018-03-21T03:02:39.816Z,99.90
2018-03-21T03:05:08.126Z,99.90
2018-03-21T03:07:36.449Z,99.90
2018-03-21T03:10:05.542Z,99.90
2018-03-21T03:12:34.612Z,99.90
2018-03-21T03:15:02.932Z,99.90
2018-03-21T03:17:32.023Z,99.90
2018-03-21T03:20:01.223Z,99.90
2018-03-21T03:22:30.293Z,99.90
2018-03-21T03:24:58.623Z,99.90
2018-03-21T03:27:26.937Z,99.90
2018-03-21T03:29:55.237Z,99.90
2018-03-21T03:32:23.527Z,99.90
2018-03-21T03:34:51.915Z,99.90
2018-03-21T03:37:20.216Z,99.90
2018-03-21T03:39:49.337Z,99.90
2018-03-21T03:42:17.637Z,99.90
2018-03-21T03:44:45.945Z,99.90
2018-03-21T03:47:14.253Z,99.90
2018-03-21T03:49:43.327Z,99.90
2018-03-21T03:52:11.649Z,99.90
2018-03-21T03:54:39.975Z,99.90
2018-03-21T03:57:08.311Z,99.90
2018-03-21T03:59:37.385Z,99.90
2018-03-21T04:02:05.697Z,99.90
2018-03-21T04:04:34.007Z,99.90
2018-03-21T04:07:02.374Z,99.90
2018-03-21T04:09:30.721Z,99.90
2018-03-21T04:11:59.032Z,99.90
2018-03-21T04:14:27.480Z,99.90
2018-03-21T04:16:55.805Z,99.90
2018-03-21T04:19:24.847Z,99.90
2018-03-21T04:21:53.169Z,99.90
2018-03-21T04:24:22.255Z,99.90
2018-03-21T04:26:51.337Z,99.90
2018-03-21T04:29:20.442Z,99.90
2018-03-21T04:31:48.744Z,99.90
2018-03-21T04:34:17.818Z,99.90
2018-03-21T04:36:46.119Z,99.90
2018-03-21T04:39:15.236Z,99.90
2018-03-21T04:41:43.575Z,99.90
2018-03-21T04:44:11.891Z,99.90
2018-03-21T04:46:40.959Z,99.90
2018-03-21T04:49:09.817Z,99.90
2018-03-21T04:51:38.107Z,99.90
2018-03-21T04:54:06.426Z,99.90
2018-03-21T04:56:34.719Z,99.90
2018-03-21T04:59:03.802Z,99.90
2018-03-21T05:01:32.097Z,99.90
2018-03-21T05:04:00.420Z,99.90
2018-03-21T05:06:28.733Z,99.90
2018-03-21T05:08:57.068Z,99.90
2018-03-21T05:11:25.679Z,99.90
2018-03-21T05:13:54.069Z,99.90
2018-03-21T05:16:22.380Z,99.90
2018-03-21T05:18:50.717Z,99.90
2018-03-21T05:21:19.050Z,99.90
2018-03-21T05:23:47.451Z,99.90
2018-03-21T05:26:15.775Z,99.90
2018-03-21T05:28:44.095Z,99.90
2018-03-21T05:31:12.407Z,99.90
2018-03-21T05:33:41.484Z,99.90
2018-03-21T05:36:09.793Z,99.90
2018-03-21T05:38:38.891Z,99.90
2018-03-21T05:41:07.971Z,99.90
2018-03-21T05:43:36.285Z,99.90
2018-03-21T05:46:04.608Z,99.90
2018-03-21T05:48:32.924Z,99.90
2018-03-21T05:51:01.263Z,99.90
2018-03-21T05:53:29.585Z,99.90
2018-03-21T05:55:58.666Z,99.90
2018-03-21T05:58:27.015Z,99.90
2018-03-21T06:00:55.369Z,99.90
2018-03-21T06:03:23.695Z,99.90
2018-03-21T06:05:52.025Z,99.90
2018-03-21T06:08:20.358Z,99.90
2018-03-21T06:10:48.676Z,99.90
2018-03-21T06:13:17.771Z,99.90
2018-03-21T06:15:46.136Z,99.90
2018-03-21T06:18:14.436Z,99.90
2018-03-21T06:20:42.737Z,99.90
2018-03-21T06:23:11.823Z,99.90
2018-03-21T06:25:40.135Z,99.90
2018-03-21T06:28:08.453Z,99.90
2018-03-21T06:30:37.579Z,99.90
2018-03-21T06:33:07.500Z,99.90
2018-03-21T06:35:35.803Z,99.90
2018-03-21T06:38:04.884Z,99.90
2018-03-21T06:40:33.180Z,99.90
2018-03-21T06:43:02.256Z,99.90
2018-03-21T06:45:30.561Z,99.90
2018-03-21T06:47:59.617Z,99.90
2018-03-21T06:50:27.975Z,99.90
2018-03-21T06:52:56.363Z,99.90
2018-03-21T06:55:24.679Z,99.90
2018-03-21T06:57:53.003Z,99.90
2018-03-21T07:00:21.512Z,99.90
2018-03-21T07:02:49.829Z,99.90
2018-03-21T07:05:18.152Z,99.90
2018-03-21T07:07:47.224Z,99.90
2018-03-21T07:10:15.529Z,99.90
2018-03-21T07:12:44.705Z,99.90
2018-03-21T07:15:30.736Z,99.90
2018-03-21T07:17:59.041Z,99.90
2018-03-21T07:20:27.337Z,99.90
2018-03-21T07:22:55.655Z,99.90
2018-03-21T07:25:24.710Z,99.90
2018-03-21T07:27:53.001Z,99.90
2018-03-21T07:30:21.335Z,99.90
2018-03-21T07:32:49.655Z,99.90
2018-03-21T07:35:17.979Z,99.90
2018-03-21T07:37:46.267Z,99.90
2018-03-21T07:40:15.343Z,99.90
2018-03-21T07:42:43.664Z,99.90
2018-03-21T07:45:12.829Z,99.90
2018-03-21T07:47:41.134Z,99.90
2018-03-21T07:50:09.463Z,99.90
2018-03-21T07:52:37.773Z,99.90
2018-03-21T07:55:06.082Z,99.90
2018-03-21T07:57:35.147Z,99.90
2018-03-21T08:00:03.438Z,99.90
2018-03-21T08:02:31.756Z,99.90
2018-03-21T08:05:00.057Z,99.90
2018-03-21T08:07:28.355Z,99.90
2018-03-21T08:09:56.694Z,99.90
2018-03-21T08:12:25.771Z,99.90
2018-03-21T08:14:54.405Z,99.90
2018-03-21T08:17:22.720Z,99.90
2018-03-21T08:19:51.052Z,99.90
2018-03-21T08:22:20.131Z,99.90
2018-03-21T08:24:49.204Z,99.90
2018-03-21T08:27:17.555Z,99.90
2018-03-21T08:29:45.917Z,99.90
2018-03-21T08:32:14.987Z,99.90
2018-03-21T08:34:43.291Z,99.90
2018-03-21T08:37:12.416Z,99.90
2018-03-21T08:39:40.728Z,99.90
2018-03-21T08:42:09.069Z,99.90
2018-03-21T08:44:37.363Z,99.90
2018-03-21T08:47:05.693Z,99.90
2018-03-21T08:49:34.001Z,99.90
2018-03-21T08:52:03.067Z,99.90
2018-03-21T08:54:31.371Z,99.90
2018-03-21T08:57:00.476Z,99.90
2018-03-21T08:59:29.560Z,99.90
2018-03-21T09:01:57.907Z,99.90
2018-03-21T09:04:26.206Z,99.90
2018-03-21T09:06:54.537Z,99.90
2018-03-21T09:09:23.605Z,95.70
2018-03-21T09:11:51.931Z,95.40
2018-03-21T09:14:20.237Z,92.10
2018-03-21T09:16:48.597Z,90.50
2018-03-21T09:19:16.932Z,88.10
2018-03-21T09:21:45.242Z,85.10
2018-03-21T09:24:13.575Z,85.60
2018-03-21T09:26:41.907Z,82.90
2018-03-21T09:29:11.020Z,80.90
2018-03-21T09:31:39.341Z,80.90
2018-03-21T09:34:07.692Z,82.00
2018-03-21T09:36:36.022Z,81.40
2018-03-21T09:39:04.382Z,82.40
2018-03-21T09:41:32.662Z,82.00
2018-03-21T09:44:01.013Z,82.20
2018-03-21T09:46:29.422Z,82.20
2018-03-21T09:48:57.687Z,80.50
2018-03-21T09:51:25.983Z,79.80
2018-03-21T09:53:54.294Z,77.00
2018-03-21T09:56:22.620Z,73.90
2018-03-21T09:58:50.930Z,72.20
2018-03-21T10:01:19.279Z,70.70
2018-03-21T10:03:48.357Z,69.60
2018-03-21T10:06:16.719Z,69.50
2018-03-21T10:08:45.022Z,71.90
2018-03-21T10:11:14.158Z,77.10
2018-03-21T10:13:42.459Z,77.00
2018-03-21T10:16:10.824Z,81.70
2018-03-21T10:18:39.235Z,86.60
2018-03-21T10:21:07.535Z,90.20
2018-03-21T10:23:35.853Z,90.70
2018-03-21T10:26:04.934Z,90.40
2018-03-21T10:28:33.269Z,90.40
2018-03-21T10:31:01.597Z,88.00
2018-03-21T10:33:29.949Z,86.00
2018-03-21T10:35:59.015Z,83.40
2018-03-21T10:38:27.329Z,83.40
2018-03-21T10:40:55.644Z,85.20
2018-03-21T10:43:24.757Z,83.30
2018-03-21T10:45:53.816Z,82.40
2018-03-21T10:48:22.129Z,82.30
2018-03-21T10:50:50.431Z,80.70
2018-03-21T10:53:18.763Z,78.70
2018-03-21T10:55:47.108Z,77.10
2018-03-21T10:58:15.404Z,76.00
2018-03-21T11:00:43.716Z,75.00
2018-03-21T11:03:12.075Z,74.10
2018-03-21T11:05:40.399Z,71.80
2018-03-21T11:08:09.474Z,71.40
2018-03-21T11:10:37.764Z,73.00
2018-03-21T11:13:06.080Z,75.10
2018-03-21T11:15:35.183Z,76.70
2018-03-21T11:18:04.266Z,77.40
2018-03-21T11:20:33.368Z,77.60
2018-03-21T11:23:02.438Z,76.90
2018-03-21T11:25:30.793Z,76.70
2018-03-21T11:27:59.123Z,75.80
2018-03-21T11:30:28.204Z,72.80
2018-03-21T11:32:56.518Z,72.70
2018-03-21T11:35:25.582Z,69.50
2018-03-21T11:37:53.898Z,69.50
2018-03-21T11:40:23.075Z,67.40
2018-03-21T11:42:51.401Z,66.60
2018-03-21T11:45:20.308Z,61.90
2018-03-21T11:47:48.643Z,61.20
2018-03-21T11:50:16.984Z,60.20
2018-03-21T11:52:46.159Z,59.90
2018-03-21T11:55:14.602Z,60.40
2018-03-21T11:57:42.935Z,60.20
2018-03-21T12:00:11.288Z,60.30
2018-03-21T12:02:40.380Z,60.20
2018-03-21T12:05:08.681Z,60.20
2018-03-21T12:07:37.796Z,58.00
2018-03-21T12:10:06.094Z,58.00
2018-03-21T12:12:34.425Z,58.30
2018-03-21T12:15:02.753Z,55.50
2018-03-21T12:17:31.072Z,53.10
2018-03-21T12:19:59.392Z,52.20
2018-03-21T12:22:27.724Z,51.10
2018-03-21T12:24:56.020Z,50.30
2018-03-21T12:27:24.366Z,51.60
2018-03-21T12:29:52.756Z,51.30
2018-03-21T12:32:21.231Z,50.20
2018-03-21T12:34:49.550Z,49.90
2018-03-21T12:37:17.872Z,49.10
2018-03-21T12:39:47.924Z,47.40
2018-03-21T12:42:16.249Z,47.30
2018-03-21T12:44:44.603Z,47.60
2018-03-21T12:47:12.924Z,47.70
2018-03-21T12:49:42.078Z,48.10
2018-03-21T12:52:10.401Z,48.10
2018-03-21T12:54:38.724Z,48.50
2018-03-21T12:57:07.058Z,48.70
2018-03-21T12:59:35.396Z,49.70
2018-03-21T13:02:03.962Z,49.90
2018-03-21T13:04:33.073Z,49.90
2018-03-21T13:07:01.433Z,49.80
2018-03-21T13:09:30.507Z,52.40
2018-03-21T13:11:58.828Z,52.30
2018-03-21T13:14:27.922Z,54.20
2018-03-21T13:16:57.484Z,51.70
2018-03-21T13:19:25.820Z,51.60
2018-03-21T13:21:54.136Z,51.00
2018-03-21T13:24:22.500Z,50.00
2018-03-21T13:26:50.856Z,49.50
2018-03-21T13:29:19.957Z,50.20
2018-03-21T13:31:49.037Z,50.60
2018-03-21T13:34:17.358Z,50.50
2018-03-21T13:36:45.717Z,50.40
2018-03-21T13:39:14.032Z,50.40
2018-03-21T13:41:42.367Z,49.80
2018-03-21T13:44:11.492Z,49.50
2018-03-21T13:46:39.867Z,49.30
2018-03-21T13:49:08.939Z,47.20
2018-03-21T13:51:37.288Z,47.20
2018-03-21T13:54:05.630Z,44.60
2018-03-21T13:56:33.963Z,43.50
2018-03-21T13:59:02.440Z,44.60
2018-03-21T14:01:30.736Z,43.50
2018-03-21T14:03:59.036Z,43.50
2018-03-21T14:06:28.194Z,41.00
2018-03-21T14:08:56.497Z,41.00
2018-03-21T14:11:24.794Z,40.90
2018-03-21T14:13:53.106Z,42.00
2018-03-21T14:16:22.450Z,40.00
2018-03-21T14:18:50.738Z,39.80
2018-03-21T14:21:19.079Z,37.00
2018-03-21T14:23:48.156Z,36.90
2018-03-21T14:26:16.476Z,36.70
2018-03-21T14:28:45.595Z,35.70
2018-03-21T14:31:13.911Z,36.00
2018-03-21T14:33:42.568Z,36.60
2018-03-21T14:36:11.812Z,37.20
2018-03-21T14:38:40.214Z,37.30
2018-03-21T14:41:08.528Z,38.80
2018-03-21T14:43:36.855Z,40.20
2018-03-21T14:46:05.196Z,39.80
2018-03-21T14:48:33.512Z,40.60
2018-03-21T14:51:01.842Z,41.30
2018-03-21T14:53:30.916Z,42.30
2018-03-21T14:55:59.312Z,42.30
2018-03-21T14:58:28.425Z,40.30
2018-03-21T15:00:57.504Z,41.40
2018-03-21T15:03:25.830Z,41.40
2018-03-21T15:05:54.224Z,40.90
2018-03-21T15:08:22.536Z,39.30
2018-03-21T15:10:50.879Z,39.40
2018-03-21T15:13:19.231Z,39.20
2018-03-21T15:15:48.377Z,40.70
2018-03-21T15:18:16.712Z,40.60
2018-03-21T15:20:45.846Z,40.00
2018-03-21T15:23:14.252Z,40.00
2018-03-21T15:25:42.586Z,38.90
2018-03-21T15:28:10.925Z,38.00
2018-03-21T15:30:39.322Z,36.90
2018-03-21T15:33:07.643Z,35.30
2018-03-21T15:35:35.967Z,34.00
2018-03-21T15:38:05.010Z,33.90
2018-03-21T15:40:34.217Z,31.50
2018-03-21T15:43:02.541Z,31.40
2018-03-21T15:45:30.867Z,31.90
2018-03-21T15:47:59.992Z,33.20
2018-03-21T15:50:28.304Z,32.30
2018-03-21T15:52:57.093Z,33.40
2018-03-21T15:55:25.418Z,33.60
2018-03-21T15:57:53.925Z,34.40
2018-03-21T16:00:22.257Z,35.10
2018-03-21T16:02:50.577Z,35.50
2018-03-21T16:05:19.716Z,36.40
2018-03-21T16:07:48.107Z,36.40
2018-03-21T16:10:16.454Z,36.60
2018-03-21T16:12:45.568Z,38.00
2018-03-21T16:15:13.874Z,37.90
2018-03-21T16:17:42.192Z,38.10
2018-03-21T16:20:10.530Z,37.70
2018-03-21T16:22:38.851Z,37.20
2018-03-21T16:25:07.178Z,37.40
2018-03-21T16:27:35.827Z,37.00
2018-03-21T16:30:04.154Z,36.80
2018-03-21T16:32:32.471Z,36.90
2018-03-21T16:35:01.540Z,38.40
2018-03-21T16:37:29.856Z,38.40
2018-03-21T16:39:59.423Z,39.00
2018-03-21T16:42:27.758Z,39.40
2018-03-21T16:44:56.070Z,40.60
2018-03-21T16:47:25.157Z,41.60
2018-03-21T16:49:54.406Z,41.60
2018-03-21T16:52:22.712Z,42.30
2018-03-21T16:54:51.041Z,42.70
2018-03-21T16:57:20.173Z,43.40
2018-03-21T16:59:49.394Z,43.30
2018-03-21T17:02:17.737Z,44.00
2018-03-21T17:04:46.814Z,45.80
2018-03-21T17:07:15.913Z,46.60
2018-03-21T17:09:44.221Z,46.60
2018-03-21T17:12:12.637Z,48.50
2018-03-21T17:14:40.952Z,48.80
2018-03-21T17:17:09.283Z,49.70
2018-03-21T17:19:37.691Z,50.90
2018-03-21T17:22:06.012Z,51.80
2018-03-21T17:24:35.142Z,55.20
2018-03-21T17:27:03.484Z,55.20
2018-03-21T17:29:31.881Z,56.60
2018-03-21T17:32:00.227Z,57.70
2018-03-21T17:34:28.592Z,59.10
2018-03-21T17:36:56.986Z,60.40
2018-03-21T17:39:25.342Z,62.40
2018-03-21T17:41:53.725Z,63.80
2018-03-21T17:44:22.071Z,65.70
2018-03-21T17:46:50.363Z,67.50
2018-03-21T17:49:19.457Z,71.70
2018-03-21T17:51:48.679Z,71.70
2018-03-21T17:54:17.029Z,73.90
2018-03-21T17:56:45.356Z,76.00
2018-03-21T17:59:13.699Z,78.40
2018-03-21T18:01:42.027Z,80.40
2018-03-21T18:04:10.406Z,83.00
2018-03-21T18:06:38.750Z,84.70
2018-03-21T18:09:07.082Z,86.10
2018-03-21T18:11:35.465Z,89.80
2018-03-21T18:14:03.798Z,91.10
2018-03-21T18:16:32.129Z,92.30
2018-03-21T18:19:00.465Z,92.90
2018-03-21T18:21:28.830Z,93.60
2018-03-21T18:23:57.181Z,94.60
2018-03-21T18:26:25.517Z,95.40
2018-03-21T18:28:53.866Z,96.20
2018-03-21T18:31:22.183Z,96.80
2018-03-21T18:33:50.488Z,97.80
2018-03-21T18:36:19.531Z,98.60
2018-03-21T18:38:47.887Z,99.70
2018-03-21T18:41:16.211Z,99.90
2018-03-21T18:43:44.516Z,99.90
2018-03-21T18:46:13.585Z,99.90
2018-03-21T18:48:41.917Z,99.90
2018-03-21T18:51:11.046Z,99.90
2018-03-21T18:53:39.357Z,99.90
2018-03-21T18:56:07.682Z,99.90
2018-03-21T18:58:36.000Z,99.90
2018-03-21T19:01:04.397Z,99.90
2018-03-21T19:03:32.725Z,99.90
2018-03-21T19:06:01.819Z,99.90
2018-03-21T19:08:30.913Z,99.90
2018-03-21T19:10:59.982Z,99.90
2018-03-21T19:13:28.291Z,99.90
2018-03-21T19:15:57.427Z,99.90
2018-03-21T19:18:25.748Z,99.90
2018-03-21T19:20:54.402Z,99.90
2018-03-21T19:23:22.767Z,99.90
2018-03-21T19:25:51.096Z,99.90
2018-03-21T19:28:19.445Z,99.90
2018-03-21T19:30:47.782Z,99.90
2018-03-21T19:33:16.102Z,99.90
2018-03-21T19:35:44.471Z,99.90
2018-03-21T19:38:13.633Z,99.90
2018-03-21T19:40:41.937Z,99.90
2018-03-21T19:43:11.029Z,99.90
2018-03-21T19:45:39.355Z,99.90
2018-03-21T19:48:07.685Z,99.90
2018-03-21T19:50:35.979Z,99.90
2018-03-21T19:53:04.301Z,99.90
2018-03-21T19:55:32.621Z,99.90
2018-03-21T19:58:00.962Z,99.90
2018-03-21T20:00:29.312Z,99.90
2018-03-21T20:02:57.694Z,99.90
2018-03-21T20:05:26.784Z,99.90
2018-03-21T20:07:55.158Z,99.90
2018-03-21T20:10:23.518Z,99.90
2018-03-21T20:12:51.856Z,99.90
2018-03-21T20:15:20.979Z,99.90
2018-03-21T20:17:49.307Z,99.90
2018-03-21T20:20:17.650Z,99.90
2018-03-21T20:22:45.959Z,99.90
2018-03-21T20:25:14.293Z,99.90
2018-03-21T20:27:42.703Z,99.90
2018-03-21T20:30:11.017Z,99.90
2018-03-21T20:32:39.974Z,99.90
2018-03-21T20:35:08.360Z,99.90
2018-03-21T20:37:37.168Z,99.90
2018-03-21T20:40:05.486Z,99.90
2018-03-21T20:42:33.784Z,99.90
2018-03-21T20:45:02.887Z,99.90
2018-03-21T20:47:31.942Z,99.90
2018-03-21T20:50:00.248Z,99.90
2018-03-21T20:52:28.587Z,99.90
2018-03-21T20:54:56.939Z,99.90
2018-03-21T20:57:26.013Z,99.90
2018-03-21T20:59:54.325Z,99.90
2018-03-21T21:02:23.445Z,99.90
2018-03-21T21:04:51.753Z,99.90
2018-03-21T21:07:20.115Z,99.90
2018-03-21T21:09:48.479Z,99.90
2018-03-21T21:12:16.864Z,99.90
2018-03-21T21:14:45.975Z,99.90
2018-03-21T21:17:14.281Z,99.90
2018-03-21T21:19:42.606Z,99.90
2018-03-21T21:22:11.746Z,99.90
2018-03-21T21:24:40.853Z,99.90
2018-03-21T21:27:09.163Z,99.90
2018-03-21T21:29:37.477Z,99.90
2018-03-21T21:32:05.817Z,99.90
2018-03-21T21:34:34.137Z,99.90
2018-03-21T21:37:02.446Z,99.90
2018-03-21T21:39:30.779Z,99.90
2018-03-21T21:41:59.120Z,99.90
2018-03-21T21:44:27.437Z,99.90
2018-03-21T21:46:55.777Z,99.90
2018-03-21T21:49:24.071Z,99.90
2018-03-21T21:51:52.381Z,99.90
2018-03-21T21:54:20.686Z,99.90
2018-03-21T21:56:49.763Z,99.90
2018-03-21T21:59:18.122Z,99.90
2018-03-21T22:01:46.424Z,99.90
2018-03-21T22:04:14.753Z,99.90
2018-03-21T22:06:43.846Z,99.90
2018-03-21T22:09:12.945Z,99.90
2018-03-21T22:11:42.043Z,99.90
2018-03-21T22:14:10.403Z,99.90
2018-03-21T22:16:38.774Z,99.90
2018-03-21T22:19:07.086Z,99.90
2018-03-21T22:21:36.192Z,99.90
2018-03-21T22:24:05.260Z,99.90
2018-03-21T22:26:33.578Z,99.90
2018-03-21T22:29:02.690Z,99.90
2018-03-21T22:31:31.025Z,99.90
2018-03-21T22:33:59.367Z,99.90
2018-03-21T22:36:27.679Z,99.90
2018-03-21T22:38:56.001Z,99.90
2018-03-21T22:41:25.099Z,99.90
2018-03-21T22:43:54.226Z,99.90
2018-03-21T22:46:22.534Z,99.90
2018-03-21T22:48:51.611Z,99.90
2018-03-21T22:51:19.919Z,99.90
2018-03-21T22:53:48.234Z,99.90
2018-03-21T22:56:17.316Z,99.90
2018-03-21T22:58:45.642Z,99.90
2018-03-21T23:01:13.950Z,99.90
2018-03-21T23:03:42.273Z,99.90
2018-03-21T23:06:10.617Z,99.90
2018-03-21T23:08:38.970Z,99.90
2018-03-21T23:11:08.032Z,99.90
2018-03-21T23:13:37.615Z,99.90
2018-03-21T23:16:05.942Z,99.90
2018-03-21T23:18:35.116Z,99.90
2018-03-21T23:21:03.433Z,99.90
2018-03-21T23:23:32.546Z,99.90
2018-03-21T23:26:00.923Z,99.90
2018-03-21T23:28:29.993Z,99.90
2018-03-21T23:30:59.207Z,99.90
2018-03-21T23:33:28.324Z,99.90
2018-03-21T23:35:56.665Z,99.90
2018-03-21T23:38:24.999Z,99.90
2018-03-21T23:40:53.317Z,99.90
2018-03-21T23:43:21.622Z,99.90
2018-03-21T23:45:50.054Z,99.90
2018-03-21T23:48:18.346Z,99.90
2018-03-21T23:50:46.661Z,99.90
2018-03-21T23:53:15.061Z,99.90
2018-03-21T23:55:43.399Z,99.90
2018-03-21T23:58:11.747Z,99.90
